createdAt,value
2017-09-01T00:00:44.175Z,5.20
2017-09-01T00:03:12.482Z,6.13
2017-09-01T00:05:40.802Z,6.53
2017-09-01T00:08:09.107Z,4.50
2017-09-01T00:10:37.430Z,5.83
2017-09-01T00:13:05.741Z,4.70
2017-09-01T00:15:34.118Z,5.10
2017-09-01T00:18:02.427Z,5.27
2017-09-01T00:20:30.732Z,4.93
2017-09-01T00:22:59.045Z,5.87
2017-09-01T00:25:27.350Z,7.17
2017-09-01T00:27:55.662Z,6.07
2017-09-01T00:30:23.974Z,4.93
2017-09-01T00:32:52.288Z,7.97
2017-09-01T00:35:20.594Z,5.97
2017-09-01T00:37:48.925Z,5.50
2017-09-01T00:40:17.234Z,6.33
2017-09-01T00:42:45.542Z,4.90
2017-09-01T00:45:13.862Z,4.57
2017-09-01T00:47:42.179Z,5.70
2017-09-01T00:50:10.505Z,6.07
2017-09-01T00:52:38.796Z,4.50
2017-09-01T00:55:07.105Z,4.50
2017-09-01T00:57:35.400Z,6.23
2017-09-01T01:00:03.709Z,3.60
2017-09-01T01:02:32.010Z,5.43
2017-09-01T01:05:00.316Z,4.60
2017-09-01T01:07:28.650Z,4.90
2017-09-01T01:09:56.961Z,5.07
2017-09-01T01:12:25.281Z,5.83
2017-09-01T01:14:53.637Z,5.63
2017-09-01T01:17:21.942Z,6.77
2017-09-01T01:19:50.292Z,3.90
2017-09-01T01:22:18.618Z,5.20
2017-09-01T01:24:46.917Z,8.27
2017-09-01T01:27:15.245Z,5.17
2017-09-01T01:29:43.569Z,8.30
2017-09-01T01:32:11.865Z,7.57
2017-09-01T01:34:40.184Z,7.97
2017-09-01T01:37:08.485Z,5.33
2017-09-01T01:39:36.798Z,9.60
2017-09-01T01:42:05.130Z,11.60
2017-09-01T01:44:33.455Z,6.13
2017-09-01T01:47:01.769Z,6.63
2017-09-01T01:49:30.077Z,7.27
2017-09-01T01:51:58.397Z,7.70
2017-09-01T01:54:26.734Z,11.93
2017-09-01T01:56:55.053Z,6.50
2017-09-01T01:59:23.362Z,6.77
2017-09-01T02:01:51.677Z,5.67
2017-09-01T02:04:19.986Z,6.83
2017-09-01T02:06:48.292Z,5.83
2017-09-01T02:09:16.585Z,6.60
2017-09-01T02:11:44.895Z,7.87
2017-09-01T02:14:13.226Z,7.67
2017-09-01T02:16:41.581Z,7.43
2017-09-01T02:19:09.908Z,10.50
2017-09-01T02:21:38.220Z,9.03
2017-09-01T02:24:06.534Z,7.00
2017-09-01T02:26:34.874Z,8.53
2017-09-01T02:29:03.257Z,8.37
2017-09-01T02:31:31.561Z,7.67
2017-09-01T02:33:59.869Z,16.30
2017-09-01T02:36:28.168Z,13.03
2017-09-01T02:38:56.513Z,10.70
2017-09-01T02:41:24.823Z,11.60
2017-09-01T02:43:53.131Z,12.27
2017-09-01T02:46:21.432Z,9.40
2017-09-01T02:48:49.732Z,12.90
2017-09-01T02:51:18.081Z,10.73
2017-09-01T02:53:46.395Z,14.53
2017-09-01T02:56:14.721Z,9.37
2017-09-01T02:58:43.026Z,12.23
2017-09-01T03:01:11.333Z,9.40
2017-09-01T03:03:39.633Z,12.80
2017-09-01T03:06:08.180Z,11.77
2017-09-01T03:08:36.496Z,11.33
2017-09-01T03:11:04.805Z,14.57
2017-09-01T03:13:33.158Z,14.10
2017-09-01T03:16:01.474Z,16.13
2017-09-01T03:18:29.813Z,10.67
2017-09-01T03:20:58.125Z,13.73
2017-09-01T03:23:26.516Z,17.30
2017-09-01T03:25:54.822Z,12.50
2017-09-01T03:28:23.160Z,12.50
2017-09-01T03:30:51.478Z,9.97
2017-09-01T03:33:19.788Z,13.23
2017-09-01T03:35:48.098Z,16.60
2017-09-01T03:38:16.400Z,17.33
2017-09-01T03:40:44.729Z,14.83
2017-09-01T03:43:13.021Z,18.20
2017-09-01T03:45:41.363Z,15.20
2017-09-01T03:48:09.697Z,12.73
2017-09-01T03:50:38.030Z,18.37
2017-09-01T03:53:06.334Z,14.93
2017-09-01T03:55:34.652Z,15.37
2017-09-01T03:58:02.966Z,16.03
2017-09-01T04:00:31.304Z,15.70
2017-09-01T04:02:59.886Z,15.17
2017-09-01T04:05:28.204Z,15.80
2017-09-01T04:07:56.532Z,20.10
2017-09-01T04:10:24.858Z,15.43
2017-09-01T04:12:53.187Z,14.87
2017-09-01T04:15:21.518Z,16.70
2017-09-01T04:17:49.841Z,15.40
2017-09-01T04:20:18.147Z,17.63
2017-09-01T04:22:46.492Z,15.27
2017-09-01T04:25:14.804Z,15.13
2017-09-01T04:27:43.114Z,13.90
2017-09-01T04:30:11.458Z,14.67
2017-09-01T04:32:39.765Z,14.03
2017-09-01T04:35:08.870Z,18.90
2017-09-01T04:37:37.194Z,16.80
2017-09-01T04:40:05.500Z,13.80
2017-09-01T04:42:33.805Z,20.37
2017-09-01T04:45:02.138Z,13.10
2017-09-01T04:47:30.454Z,12.73
2017-09-01T04:49:58.775Z,16.13
2017-09-01T04:52:27.089Z,11.00
2017-09-01T04:54:55.425Z,12.23
2017-09-01T04:57:23.747Z,16.33
2017-09-01T04:59:52.100Z,12.90
2017-09-01T05:02:20.408Z,13.30
2017-09-01T05:04:48.709Z,10.67
2017-09-01T05:07:17.100Z,14.57
2017-09-01T05:09:45.716Z,11.87
2017-09-01T05:12:14.017Z,11.80
2017-09-01T05:14:42.337Z,14.17
2017-09-01T05:17:10.646Z,14.50
2017-09-01T05:19:39.024Z,12.73
2017-09-01T05:22:07.369Z,15.63
2017-09-01T05:24:35.690Z,18.33
2017-09-01T05:27:03.998Z,12.03
2017-09-01T05:29:32.317Z,14.57
2017-09-01T05:32:00.625Z,15.93
2017-09-01T05:34:28.968Z,14.50
2017-09-01T05:36:57.309Z,13.60
2017-09-01T05:39:25.615Z,12.00
2017-09-01T05:41:53.945Z,18.37
2017-09-01T05:44:22.269Z,16.17
2017-09-01T05:46:50.581Z,12.50
2017-09-01T05:49:18.897Z,12.43
2017-09-01T05:51:47.205Z,14.27
2017-09-01T05:54:15.521Z,14.60
2017-09-01T05:56:43.869Z,10.07
2017-09-01T05:59:12.177Z,14.53
2017-09-01T06:01:40.487Z,13.90
2017-09-01T06:04:08.811Z,13.77
2017-09-01T06:06:37.119Z,18.63
2017-09-01T06:09:05.441Z,15.83
2017-09-01T06:11:33.761Z,12.97
2017-09-01T06:14:02.064Z,13.43
2017-09-01T06:16:30.397Z,14.93
2017-09-01T06:18:58.717Z,12.50
2017-09-01T06:21:27.024Z,12.23
2017-09-01T06:23:55.332Z,14.63
2017-09-01T06:26:23.650Z,12.63
2017-09-01T06:28:51.956Z,8.83
2017-09-01T06:31:20.268Z,13.70
2017-09-01T06:33:48.581Z,6.90
2017-09-01T06:36:16.903Z,8.97
2017-09-01T06:38:45.222Z,8.63
2017-09-01T06:41:13.547Z,8.40
2017-09-01T06:43:41.863Z,15.77
2017-09-01T06:46:10.184Z,10.87
2017-09-01T06:48:38.497Z,7.47
2017-09-01T06:51:06.797Z,5.70
2017-09-01T06:53:35.120Z,7.37
2017-09-01T06:56:03.426Z,26.00
2017-09-01T06:58:31.738Z,6.30
2017-09-01T07:01:00.053Z,7.30
2017-09-01T07:03:28.370Z,13.73
2017-09-01T07:05:56.674Z,7.50
2017-09-01T07:08:25.015Z,7.90
2017-09-01T07:10:53.333Z,5.57
2017-09-01T07:13:21.644Z,12.97
2017-09-01T07:15:49.969Z,8.60
2017-09-01T07:18:18.272Z,9.07
2017-09-01T07:20:46.586Z,3.30
2017-09-01T07:23:14.885Z,5.77
2017-09-01T07:25:43.215Z,9.50
2017-09-01T07:28:11.526Z,8.77
2017-09-01T07:30:39.848Z,6.23
2017-09-01T07:33:08.168Z,3.73
2017-09-01T07:35:36.494Z,8.13
2017-09-01T07:38:04.811Z,8.07
2017-09-01T07:40:33.160Z,9.97
2017-09-01T07:43:01.466Z,4.93
2017-09-01T07:45:29.768Z,7.53
2017-09-01T07:47:58.082Z,7.50
2017-09-01T07:50:26.381Z,6.30
2017-09-01T07:52:54.701Z,3.90
2017-09-01T07:55:23.003Z,7.27
2017-09-01T07:57:51.321Z,5.93
2017-09-01T08:00:19.627Z,7.23
2017-09-01T08:02:47.928Z,8.30
2017-09-01T08:05:16.240Z,7.73
2017-09-01T08:07:44.548Z,7.20
2017-09-01T08:10:12.849Z,6.70
2017-09-01T08:12:41.182Z,6.20
2017-09-01T08:15:09.491Z,5.43
2017-09-01T08:17:37.807Z,16.60
2017-09-01T08:20:06.120Z,7.93
2017-09-01T08:22:34.429Z,10.87
2017-09-01T08:25:02.745Z,7.70
2017-09-01T08:27:31.071Z,8.43
2017-09-01T08:29:59.394Z,11.40
2017-09-01T08:32:27.696Z,9.93
2017-09-01T08:34:56.004Z,6.37
2017-09-01T08:37:24.300Z,7.73
2017-09-01T08:39:52.601Z,16.17
2017-09-01T08:42:20.931Z,23.90
2017-09-01T08:44:49.277Z,7.90
2017-09-01T08:47:17.597Z,7.60
2017-09-01T08:49:45.889Z,9.90
2017-09-01T08:52:14.210Z,11.90
2017-09-01T08:54:42.525Z,11.03
2017-09-01T08:57:10.844Z,9.80
2017-09-01T08:59:39.149Z,10.13
2017-09-01T09:02:07.454Z,18.83
2017-09-01T09:04:35.766Z,5.63
2017-09-01T09:07:04.094Z,11.23
2017-09-01T09:09:32.424Z,11.00
2017-09-01T09:12:00.757Z,8.73
2017-09-01T09:14:29.048Z,8.37
2017-09-01T09:16:57.349Z,5.30
2017-09-01T09:19:25.672Z,12.73
2017-09-01T09:21:53.971Z,6.43
2017-09-01T09:24:22.305Z,9.80
2017-09-01T09:26:51.281Z,7.97
2017-09-01T09:29:19.587Z,9.20
2017-09-01T09:31:47.888Z,10.87
2017-09-01T09:34:16.197Z,6.13
2017-09-01T09:36:44.557Z,9.03
2017-09-01T09:39:12.870Z,8.73
2017-09-01T09:41:41.177Z,10.43
2017-09-01T09:44:09.505Z,7.07
2017-09-01T09:46:37.818Z,8.60
2017-09-01T09:49:06.129Z,5.43
2017-09-01T09:51:34.455Z,21.07
2017-09-01T09:54:02.775Z,9.30
2017-09-01T09:56:31.090Z,7.20
2017-09-01T09:58:59.397Z,8.47
2017-09-01T10:01:27.711Z,6.43
2017-09-01T10:03:56.037Z,3.60
2017-09-01T10:06:24.368Z,6.57
2017-09-01T10:08:53.298Z,5.03
2017-09-01T10:11:21.636Z,9.13
2017-09-01T10:13:49.932Z,9.70
2017-09-01T10:16:18.234Z,9.50
2017-09-01T10:18:46.545Z,9.70
2017-09-01T10:21:14.857Z,5.00
2017-09-01T10:23:43.165Z,7.23
2017-09-01T10:26:11.475Z,7.33
2017-09-01T10:28:39.781Z,6.03
2017-09-01T10:31:08.082Z,5.47
2017-09-01T10:33:36.389Z,6.73
2017-09-01T10:36:04.688Z,10.73
2017-09-01T10:38:32.992Z,7.50
2017-09-01T10:41:01.289Z,6.83
2017-09-01T10:43:29.607Z,6.37
2017-09-01T10:45:57.908Z,6.30
2017-09-01T10:48:43.955Z,12.60
2017-09-01T10:51:30.038Z,7.03
2017-09-01T10:57:28.497Z,4.23
2017-09-01T10:59:56.820Z,3.87
2017-09-01T11:02:25.113Z,5.13
2017-09-01T11:04:53.413Z,7.30
2017-09-01T11:07:21.719Z,8.00
2017-09-01T11:09:50.013Z,8.00
2017-09-01T11:12:18.322Z,5.17
2017-09-01T11:14:46.612Z,7.90
2017-09-01T11:17:14.913Z,3.33
2017-09-01T11:19:48.576Z,6.70
2017-09-01T11:22:22.522Z,4.77
2017-09-01T11:24:50.821Z,6.23
2017-09-01T11:27:19.118Z,6.47
2017-09-01T11:29:47.429Z,6.60
2017-09-01T11:32:15.726Z,3.37
2017-09-01T11:34:44.033Z,3.77
2017-09-01T11:37:12.356Z,5.60
2017-09-01T11:39:40.702Z,4.93
2017-09-01T11:42:09.014Z,5.83
2017-09-01T11:44:37.318Z,4.43
2017-09-01T11:47:05.612Z,5.60
2017-09-01T11:49:33.916Z,5.97
2017-09-01T11:52:02.220Z,5.87
2017-09-01T11:54:30.553Z,5.67
2017-09-01T11:56:58.849Z,6.10
2017-09-01T12:02:00.654Z,9.17
2017-09-01T12:04:29.013Z,5.43
2017-09-01T12:06:57.330Z,6.40
2017-09-01T12:09:25.640Z,3.40
2017-09-01T12:11:53.982Z,10.60
2017-09-01T12:14:22.286Z,6.60
2017-09-01T12:16:51.304Z,4.80
2017-09-01T12:19:19.616Z,6.43
2017-09-01T12:21:47.916Z,5.80
2017-09-01T12:24:16.224Z,6.20
2017-09-01T12:26:44.526Z,2.70
2017-09-01T12:29:12.836Z,4.90
2017-09-01T12:31:41.137Z,5.80
2017-09-01T12:34:09.441Z,5.63
2017-09-01T12:36:37.744Z,4.77
2017-09-01T12:39:06.052Z,14.17
2017-09-01T12:41:34.352Z,4.20
2017-09-01T12:44:02.709Z,10.50
2017-09-01T12:46:31.013Z,4.20
2017-09-01T12:48:59.308Z,7.40
2017-09-01T12:51:27.625Z,5.03
2017-09-01T12:53:55.939Z,9.23
2017-09-01T12:56:24.294Z,7.57
2017-09-01T12:58:52.600Z,7.37
2017-09-01T13:01:20.912Z,8.07
2017-09-01T13:03:49.210Z,7.03
2017-09-01T13:06:17.549Z,6.40
2017-09-01T13:08:45.853Z,3.53
2017-09-01T13:11:14.154Z,5.00
2017-09-01T13:13:42.480Z,6.13
2017-09-01T13:16:10.788Z,7.63
2017-09-01T13:18:39.097Z,4.60
2017-09-01T13:21:07.387Z,6.40
2017-09-01T13:23:35.706Z,11.97
2017-09-01T13:26:04.004Z,5.07
2017-09-01T13:28:32.346Z,7.07
2017-09-01T13:31:00.657Z,4.93
2017-09-01T13:33:28.965Z,7.50
2017-09-01T13:35:57.268Z,4.97
2017-09-01T13:38:25.583Z,7.60
2017-09-01T13:40:53.910Z,7.33
2017-09-01T13:43:22.238Z,8.00
2017-09-01T13:45:50.545Z,2.87
2017-09-01T13:48:18.854Z,6.67
2017-09-01T13:50:47.184Z,6.17
2017-09-01T13:53:15.489Z,9.03
2017-09-01T13:55:43.788Z,3.53
2017-09-01T13:58:12.099Z,4.93
2017-09-01T14:00:40.396Z,6.47
2017-09-01T14:03:08.709Z,4.57
2017-09-01T14:05:37.017Z,10.60
2017-09-01T14:08:05.355Z,7.97
2017-09-01T14:10:33.674Z,7.30
2017-09-01T14:13:02.019Z,5.83
2017-09-01T14:15:30.356Z,4.40
2017-09-01T14:17:58.694Z,4.47
2017-09-01T14:20:27.010Z,6.87
2017-09-01T14:22:55.325Z,5.00
2017-09-01T14:25:23.632Z,9.80
2017-09-01T14:27:51.932Z,2.43
2017-09-01T14:30:20.242Z,3.60
2017-09-01T14:32:48.540Z,4.60
2017-09-01T14:35:16.853Z,3.27
2017-09-01T14:37:45.169Z,2.60
2017-09-01T14:40:13.470Z,8.87
2017-09-01T14:42:41.838Z,5.10
2017-09-01T14:45:10.156Z,4.77
2017-09-01T14:47:38.498Z,4.53
2017-09-01T14:50:06.798Z,7.10
2017-09-01T14:52:35.120Z,3.10
2017-09-01T14:55:03.768Z,7.90
2017-09-01T14:57:32.057Z,4.33
2017-09-01T15:00:00.369Z,5.13
2017-09-01T15:02:28.678Z,8.43
2017-09-01T15:04:56.985Z,5.60
2017-09-01T15:07:25.284Z,6.73
2017-09-01T15:09:53.612Z,6.07
2017-09-01T15:12:21.917Z,3.40
2017-09-01T15:14:50.226Z,4.90
2017-09-01T15:17:18.532Z,5.10
2017-09-01T15:19:46.846Z,4.93
2017-09-01T15:22:15.200Z,4.00
2017-09-01T15:24:43.533Z,6.57
2017-09-01T15:27:11.825Z,8.20
2017-09-01T15:29:40.116Z,6.70
2017-09-01T15:32:08.737Z,8.80
2017-09-01T15:34:37.030Z,8.27
2017-09-01T15:37:05.345Z,7.27
2017-09-01T15:39:33.668Z,6.40
2017-09-01T15:42:01.980Z,4.93
2017-09-01T15:44:30.290Z,8.03
2017-09-01T15:46:58.617Z,10.10
2017-09-01T15:49:26.929Z,12.07
2017-09-01T15:51:55.253Z,5.80
2017-09-01T15:54:23.557Z,7.20
2017-09-01T15:56:51.869Z,6.70
2017-09-01T15:59:20.184Z,6.80
2017-09-01T16:01:48.485Z,10.97
2017-09-01T16:04:16.820Z,9.03
2017-09-01T16:06:45.117Z,6.93
2017-09-01T16:09:13.412Z,5.93
2017-09-01T16:11:41.749Z,8.93
2017-09-01T16:14:10.058Z,6.17
2017-09-01T16:16:38.357Z,8.17
2017-09-01T16:19:06.657Z,8.67
2017-09-01T16:21:34.976Z,5.90
2017-09-01T16:24:03.273Z,9.53
2017-09-01T16:26:31.580Z,6.80
2017-09-01T16:28:59.873Z,6.50
2017-09-01T16:31:28.213Z,5.10
2017-09-01T16:33:56.512Z,8.47
2017-09-01T16:36:24.818Z,9.00
2017-09-01T16:38:53.322Z,7.47
2017-09-01T16:41:21.630Z,7.70
2017-09-01T16:43:49.973Z,9.47
2017-09-01T16:46:18.273Z,6.53
2017-09-01T16:48:46.589Z,6.47
2017-09-01T16:51:14.885Z,4.93
2017-09-01T16:53:43.215Z,5.87
2017-09-01T16:56:11.516Z,3.00
2017-09-01T16:58:39.840Z,7.23
2017-09-01T17:01:08.151Z,3.63
2017-09-01T17:03:36.449Z,8.23
2017-09-01T17:06:04.772Z,5.80
2017-09-01T17:08:33.068Z,7.70
2017-09-01T17:11:01.383Z,7.40
2017-09-01T17:13:29.690Z,13.17
2017-09-01T17:15:57.997Z,9.03
2017-09-01T17:18:26.312Z,10.93
2017-09-01T17:20:54.624Z,10.83
2017-09-01T17:23:22.925Z,11.27
2017-09-01T17:25:51.256Z,8.23
2017-09-01T17:28:19.553Z,9.03
2017-09-01T17:30:47.856Z,11.33
2017-09-01T17:33:16.212Z,11.90
2017-09-01T17:35:44.522Z,11.00
2017-09-01T17:38:12.828Z,10.93
2017-09-01T17:40:41.136Z,10.80
2017-09-01T17:43:09.456Z,11.00
2017-09-01T17:45:37.777Z,8.00
2017-09-01T17:48:06.096Z,8.97
2017-09-01T17:50:34.385Z,14.93
2017-09-01T17:53:02.730Z,13.90
2017-09-01T17:55:31.041Z,12.60
2017-09-01T17:57:59.349Z,8.63
2017-09-01T18:00:27.657Z,14.70
2017-09-01T18:02:55.997Z,15.40
2017-09-01T18:05:24.313Z,49.17
2017-09-01T18:07:52.622Z,30.23
2017-09-01T18:10:20.936Z,12.50
2017-09-01T18:12:49.873Z,19.47
2017-09-01T18:15:18.193Z,23.67
2017-09-01T18:17:46.504Z,11.70
2017-09-01T18:20:14.804Z,10.87
2017-09-01T18:22:43.113Z,17.75
2017-09-01T18:25:11.436Z,23.33
2017-09-01T18:27:39.742Z,16.30
2017-09-01T18:30:08.056Z,11.80
2017-09-01T18:32:36.370Z,9.33
2017-09-01T18:35:04.679Z,10.13
2017-09-01T18:37:33.004Z,15.73
2017-09-01T18:40:01.316Z,10.57
2017-09-01T18:42:29.689Z,9.67
2017-09-01T18:44:57.999Z,11.20
2017-09-01T18:47:26.317Z,20.63
2017-09-01T18:49:54.628Z,8.37
2017-09-01T18:52:22.924Z,13.83
2017-09-01T18:54:51.258Z,10.03
2017-09-01T18:57:19.573Z,12.90
2017-09-01T18:59:47.904Z,12.50
2017-09-01T19:02:16.217Z,15.83
2017-09-01T19:04:44.536Z,10.07
2017-09-01T19:07:12.871Z,13.33
2017-09-01T19:09:41.188Z,14.90
2017-09-01T19:12:09.523Z,10.00
2017-09-01T19:14:37.817Z,10.70
2017-09-01T19:17:06.136Z,16.43
2017-09-01T19:19:34.458Z,31.23
2017-09-01T19:22:02.782Z,117.37
2017-09-01T19:24:31.106Z,100.13
2017-09-01T19:26:59.466Z,74.67
2017-09-01T19:29:27.789Z,55.50
2017-09-01T19:31:56.102Z,48.27
2017-09-01T19:34:24.431Z,39.77
2017-09-01T19:36:52.731Z,41.93
2017-09-01T19:39:21.057Z,38.77
2017-09-01T19:41:49.856Z,26.93
2017-09-01T19:44:18.164Z,20.70
2017-09-01T19:46:46.478Z,13.60
2017-09-01T19:49:14.807Z,14.60
2017-09-01T19:51:43.128Z,13.23
2017-09-01T19:54:11.456Z,12.70
2017-09-01T19:56:39.761Z,13.30
2017-09-01T19:59:08.066Z,13.63
2017-09-01T20:01:36.373Z,12.90
2017-09-01T20:04:04.681Z,10.10
2017-09-01T20:06:33.020Z,11.27
2017-09-01T20:09:01.321Z,13.47
2017-09-01T20:11:29.641Z,12.63
2017-09-01T20:13:57.950Z,12.80
2017-09-01T20:16:26.273Z,13.93
2017-09-01T20:18:54.587Z,13.50
2017-09-01T20:21:22.907Z,12.90
2017-09-01T20:23:51.216Z,11.67
2017-09-01T20:26:19.532Z,15.37
2017-09-01T20:28:47.845Z,13.60
2017-09-01T20:31:16.197Z,12.73
2017-09-01T20:33:44.494Z,9.87
2017-09-01T20:36:12.825Z,12.73
2017-09-01T20:38:41.821Z,10.13
2017-09-01T20:41:10.148Z,15.33
2017-09-01T20:43:38.491Z,8.20
2017-09-01T20:46:06.811Z,11.63
2017-09-01T20:48:35.171Z,13.63
2017-09-01T20:51:03.469Z,12.37
2017-09-01T20:53:31.784Z,7.60
2017-09-01T20:56:00.103Z,11.77
2017-09-01T20:58:28.434Z,12.23
2017-09-01T21:00:56.738Z,12.87
2017-09-01T21:03:25.038Z,8.17
2017-09-01T21:05:53.367Z,12.60
2017-09-01T21:08:21.696Z,11.40
2017-09-01T21:10:50.021Z,12.00
2017-09-01T21:13:18.338Z,14.17
2017-09-01T21:15:46.649Z,8.90
2017-09-01T21:18:14.952Z,12.67
2017-09-01T21:20:43.282Z,13.13
2017-09-01T21:23:11.588Z,9.93
2017-09-01T21:25:39.896Z,14.50
2017-09-01T21:28:08.196Z,13.33
2017-09-01T21:30:36.525Z,17.70
2017-09-01T21:33:04.830Z,14.83
2017-09-01T21:35:33.175Z,23.30
2017-09-01T21:38:01.505Z,14.00
2017-09-01T21:40:29.817Z,16.13
2017-09-01T21:42:58.139Z,11.87
2017-09-01T21:45:26.448Z,12.80
2017-09-01T21:47:54.757Z,8.23
2017-09-01T21:50:23.067Z,12.50
2017-09-01T21:52:51.395Z,12.50
2017-09-01T21:55:19.707Z,11.30
2017-09-01T21:57:48.371Z,7.83
2017-09-01T22:00:16.670Z,8.10
2017-09-01T22:02:45.011Z,8.50
2017-09-01T22:05:13.321Z,10.33
2017-09-01T22:07:41.641Z,12.57
2017-09-01T22:10:09.967Z,11.60
2017-09-01T22:12:38.269Z,8.93
2017-09-01T22:15:06.589Z,8.60
2017-09-01T22:17:34.887Z,11.10
2017-09-01T22:20:03.213Z,7.87
2017-09-01T22:22:31.513Z,5.87
2017-09-01T22:24:59.854Z,6.90
2017-09-01T22:27:28.164Z,11.77
2017-09-01T22:29:56.472Z,8.20
2017-09-01T22:32:24.775Z,10.90
2017-09-01T22:34:53.075Z,10.37
2017-09-01T22:37:21.381Z,9.53
2017-09-01T22:39:49.689Z,10.37
2017-09-01T22:42:18.019Z,7.53
2017-09-01T22:44:46.320Z,10.57
2017-09-01T22:47:14.652Z,8.87
2017-09-01T22:49:42.971Z,8.70
2017-09-01T22:52:11.294Z,10.63
2017-09-01T22:54:39.627Z,14.50
2017-09-01T22:57:07.937Z,10.03
2017-09-01T22:59:36.236Z,7.53
2017-09-01T23:02:04.554Z,8.33
2017-09-01T23:04:32.931Z,7.70
2017-09-01T23:07:01.230Z,7.83
2017-09-01T23:09:29.553Z,10.30
2017-09-01T23:11:57.865Z,11.40
2017-09-01T23:14:26.181Z,14.30
2017-09-01T23:16:54.493Z,9.73
2017-09-01T23:19:22.795Z,7.63
2017-09-01T23:21:51.129Z,9.67
2017-09-01T23:24:19.442Z,11.33
2017-09-01T23:26:47.761Z,8.63
2017-09-01T23:29:16.069Z,11.13
2017-09-01T23:31:44.415Z,14.80
2017-09-01T23:34:12.718Z,8.33
2017-09-01T23:36:41.023Z,9.73
2017-09-01T23:39:09.358Z,13.17
2017-09-01T23:41:37.657Z,9.33
2017-09-01T23:44:05.966Z,9.20
2017-09-01T23:46:34.279Z,11.40
2017-09-01T23:49:02.622Z,9.07
2017-09-01T23:51:30.932Z,10.20
2017-09-01T23:53:59.240Z,7.80
2017-09-01T23:56:27.538Z,8.80
2017-09-01T23:58:55.874Z,11.03
